createdAt,value
2023-03-31T00:01:00.700Z,97422.50
2023-03-31T00:06:05.923Z,97416.91
2023-03-31T00:11:11.993Z,97411.34
2023-03-31T00:16:17.768Z,97424.97
2023-03-31T00:21:29.906Z,97422.97
2023-03-31T00:26:35.226Z,97413.94
2023-03-31T00:31:41.530Z,97418.13
2023-03-31T00:36:47.824Z,97419.06
2023-03-31T00:41:52.279Z,97418.38
2023-03-31T00:47:02.536Z,97414.28
2023-03-31T00:52:08.990Z,97413.03
2023-03-31T00:57:13.600Z,97421.03
2023-03-31T01:02:20.798Z,97416.25
2023-03-31T01:07:28.117Z,97419.59
2023-03-31T01:12:34.426Z,97413.22
2023-03-31T01:17:44.846Z,97413.84
2023-03-31T01:23:24.436Z,97406.34
2023-03-31T01:28:37.955Z,97403.78
2023-03-31T01:34:23.542Z,97396.88
2023-03-31T01:40:01.970Z,97401.28
2023-03-31T01:45:16.846Z,97394.09
2023-03-31T01:50:25.846Z,97391.03
2023-03-31T01:55:36.653Z,97402.88
2023-03-31T02:00:44.758Z,97407.19
2023-03-31T02:05:52.594Z,97408.34
2023-03-31T02:10:59.454Z,97417.81
2023-03-31T02:16:09.078Z,97415.69
2023-03-31T02:21:14.750Z,97408.06
2023-03-31T02:26:24.876Z,97405.88
2023-03-31T02:31:34.307Z,97405.38
2023-03-31T02:36:38.545Z,97402.78
2023-03-31T02:41:46.949Z,97396.94
2023-03-31T02:46:51.013Z,97393.09
2023-03-31T02:52:20.061Z,97387.72
2023-03-31T02:57:50.955Z,97386.09
2023-03-31T03:03:08.000Z,97392.56
2023-03-31T03:08:20.460Z,97391.91
2023-03-31T03:13:32.646Z,97388.50
2023-03-31T03:18:38.527Z,97397.63
2023-03-31T03:23:43.329Z,97399.59
2023-03-31T03:28:49.099Z,97393.22
2023-03-31T03:33:53.740Z,97403.72
2023-03-31T03:38:57.998Z,97391.00
2023-03-31T03:44:03.774Z,97378.38
2023-03-31T03:49:07.977Z,97373.91
2023-03-31T03:54:12.035Z,97371.38
2023-03-31T03:59:17.386Z,97368.50
2023-03-31T04:04:21.565Z,97374.19
2023-03-31T04:09:26.052Z,97370.44
2023-03-31T04:14:31.554Z,97363.97
2023-03-31T04:19:35.505Z,97367.09
2023-03-31T04:24:39.550Z,97362.88
2023-03-31T04:29:54.661Z,97350.66
2023-03-31T04:35:05.016Z,97353.19
2023-03-31T04:40:10.800Z,97356.22
2023-03-31T04:45:16.468Z,97344.78
2023-03-31T04:50:21.002Z,97352.41
2023-03-31T04:55:25.083Z,97333.50
2023-03-31T05:00:32.188Z,97328.59
2023-03-31T05:05:36.257Z,97315.34
2023-03-31T05:10:40.255Z,97326.38
2023-03-31T05:15:48.101Z,97306.94
2023-03-31T05:20:52.456Z,97310.25
2023-03-31T05:25:56.651Z,97305.94
2023-03-31T05:31:02.787Z,97299.22
2023-03-31T05:36:07.719Z,97300.91
2023-03-31T05:41:13.126Z,97297.84
2023-03-31T05:46:18.821Z,97294.78
2023-03-31T05:51:23.168Z,97290.75
2023-03-31T05:56:27.954Z,97287.91
2023-03-31T06:01:33.652Z,97292.72
2023-03-31T06:06:38.143Z,97297.19
2023-03-31T06:11:43.255Z,97297.53
2023-03-31T06:16:49.375Z,97297.00
2023-03-31T06:21:57.053Z,97289.47
2023-03-31T06:27:01.413Z,97289.19
2023-03-31T06:32:06.979Z,97296.06
2023-03-31T06:37:11.450Z,97284.34
2023-03-31T06:42:15.861Z,97289.94
2023-03-31T06:47:21.507Z,97290.06
2023-03-31T06:52:25.453Z,97291.41
2023-03-31T06:57:29.796Z,97289.34
2023-03-31T07:02:35.313Z,97282.44
2023-03-31T07:07:40.361Z,97290.81
2023-03-31T07:12:44.723Z,97296.47
2023-03-31T07:17:53.985Z,97285.63
2023-03-31T07:22:58.762Z,97273.16
2023-03-31T07:28:02.777Z,97273.94
2023-03-31T07:33:08.698Z,97263.41
2023-03-31T07:38:14.668Z,97260.53
2023-03-31T07:43:18.627Z,97256.03
2023-03-31T07:48:23.948Z,97245.50
2023-03-31T07:53:28.113Z,97246.84
2023-03-31T07:58:32.262Z,97243.31
2023-03-31T08:03:37.755Z,97236.31
2023-03-31T08:08:43.364Z,97222.50
2023-03-31T08:13:47.543Z,97230.41
2023-03-31T08:18:53.050Z,97213.28
2023-03-31T08:23:57.687Z,97206.63
2023-03-31T08:29:01.952Z,97213.28
2023-03-31T08:34:07.629Z,97196.34
2023-03-31T08:39:11.762Z,97192.78
2023-03-31T08:44:19.165Z,97177.72
2023-03-31T08:49:25.340Z,97174.97
2023-03-31T08:54:33.863Z,97172.69
2023-03-31T08:59:39.249Z,97165.81
2023-03-31T09:05:18.605Z,97159.22
2023-03-31T09:10:33.669Z,97148.56
2023-03-31T09:15:42.512Z,97133.91
2023-03-31T09:20:50.654Z,97122.47
2023-03-31T09:25:55.319Z,97118.09
2023-03-31T09:30:59.598Z,97120.91
2023-03-31T09:36:15.063Z,97115.31
2023-03-31T09:41:20.171Z,97105.94
2023-03-31T09:46:31.570Z,97098.16
2023-03-31T09:51:38.998Z,97088.25
2023-03-31T09:56:49.239Z,97078.06
2023-03-31T10:01:59.153Z,97072.97
2023-03-31T10:07:06.772Z,97068.75
2023-03-31T10:12:17.587Z,97066.75
2023-03-31T10:17:23.289Z,97060.81
2023-03-31T10:22:32.566Z,97055.44
2023-03-31T10:27:40.684Z,97053.28
2023-03-31T10:32:48.074Z,97044.25
2023-03-31T10:37:59.896Z,97038.78
2023-03-31T10:43:10.124Z,97045.19
2023-03-31T10:48:20.451Z,97037.34
2023-03-31T10:53:25.741Z,97027.41
2023-03-31T10:59:02.051Z,97024.88
2023-03-31T11:04:28.242Z,97016.75
2023-03-31T11:09:43.134Z,97011.16
2023-03-31T11:14:55.861Z,97008.16
2023-03-31T11:20:07.000Z,96999.53
2023-03-31T11:25:35.416Z,96982.78
2023-03-31T11:30:43.351Z,96986.09
2023-03-31T11:35:56.947Z,96974.91
2023-03-31T11:41:06.786Z,96974.25
2023-03-31T11:46:14.706Z,96960.66
2023-03-31T11:51:22.518Z,96951.00
2023-03-31T11:56:32.035Z,96941.53
2023-03-31T12:01:42.880Z,96938.25
2023-03-31T12:06:49.371Z,96935.41
2023-03-31T12:11:58.712Z,96931.94
2023-03-31T12:17:06.358Z,96927.59
2023-03-31T12:22:15.500Z,96910.66
2023-03-31T12:27:25.135Z,96908.22
2023-03-31T12:32:32.535Z,96892.88
2023-03-31T12:38:11.635Z,96882.53
2023-03-31T12:43:51.054Z,96861.97
2023-03-31T12:49:09.557Z,96859.91
2023-03-31T12:54:26.050Z,96856.59
2023-03-31T12:59:33.152Z,96837.13
2023-03-31T13:04:39.128Z,96833.47
2023-03-31T13:09:52.366Z,96841.53
2023-03-31T13:15:00.093Z,96830.38
2023-03-31T13:20:25.797Z,96825.41
2023-03-31T13:25:51.785Z,96821.19
2023-03-31T13:30:58.861Z,96803.44
2023-03-31T13:36:41.864Z,96791.97
2023-03-31T13:41:56.359Z,96788.59
2023-03-31T13:47:35.957Z,96778.31
2023-03-31T13:52:50.913Z,96821.69
2023-03-31T13:58:38.857Z,96816.72
2023-03-31T14:04:01.015Z,96808.25
2023-03-31T14:09:08.832Z,96792.88
2023-03-31T14:14:15.621Z,96789.59
2023-03-31T14:19:34.912Z,96765.16
2023-03-31T14:24:47.020Z,96759.53
2023-03-31T14:29:57.934Z,96744.72
2023-03-31T14:35:13.883Z,96739.66
2023-03-31T14:40:20.305Z,96723.63
2023-03-31T14:45:26.474Z,96724.31
2023-03-31T14:50:32.672Z,96714.25
2023-03-31T14:55:54.180Z,96706.41
2023-03-31T15:01:02.202Z,96696.84
2023-03-31T15:06:07.109Z,96690.50
2023-03-31T15:11:19.194Z,96684.34
2023-03-31T15:16:42.053Z,96675.66
2023-03-31T15:21:47.062Z,96681.63
2023-03-31T15:26:58.244Z,96667.03
2023-03-31T15:32:02.571Z,96664.50
2023-03-31T15:37:08.393Z,96646.25
2023-03-31T15:42:13.990Z,96644.84
2023-03-31T15:47:20.140Z,96636.50
2023-03-31T15:52:35.015Z,96627.19
2023-03-31T15:57:45.401Z,96626.41
2023-03-31T16:02:49.707Z,96624.94
2023-03-31T16:07:53.669Z,96623.97
2023-03-31T16:13:02.780Z,96612.44
2023-03-31T16:18:12.120Z,96609.91
2023-03-31T16:23:18.570Z,96609.75
2023-03-31T16:28:26.833Z,96604.34
2023-03-31T16:33:31.902Z,96607.06
2023-03-31T16:38:35.773Z,96600.88
2023-03-31T16:43:41.556Z,96605.59
2023-03-31T16:48:45.935Z,96603.50
2023-03-31T16:53:50.273Z,96599.75
2023-03-31T16:58:56.562Z,96596.41
2023-03-31T17:04:00.946Z,96600.25
2023-03-31T17:09:05.159Z,96598.59
2023-03-31T17:14:11.070Z,96600.59
2023-03-31T17:19:17.311Z,96617.00
2023-03-31T17:24:22.310Z,96601.22
2023-03-31T17:29:28.634Z,96598.38
2023-03-31T17:34:32.512Z,96571.13
2023-03-31T17:39:36.741Z,96541.84
2023-03-31T17:44:42.338Z,96560.09
2023-03-31T17:49:46.340Z,96558.63
2023-03-31T17:54:50.885Z,96565.72
2023-03-31T17:59:56.905Z,96569.84
2023-03-31T18:05:01.116Z,96565.13
2023-03-31T18:10:08.769Z,96560.16
2023-03-31T18:15:14.887Z,96555.34
2023-03-31T18:20:19.317Z,96556.56
2023-03-31T18:25:23.496Z,96553.16
2023-03-31T18:30:28.916Z,96539.78
2023-03-31T18:35:33.353Z,96545.03
2023-03-31T18:40:37.746Z,96541.91
2023-03-31T18:45:44.021Z,96533.72
2023-03-31T18:50:49.924Z,96543.91
2023-03-31T18:55:55.816Z,96538.28
2023-03-31T19:01:02.325Z,96547.91
2023-03-31T19:06:10.231Z,96540.09
2023-03-31T19:11:16.081Z,96534.88
2023-03-31T19:16:21.736Z,96517.88
2023-03-31T19:21:27.110Z,96526.13
2023-03-31T19:26:31.330Z,96517.53
2023-03-31T19:31:40.587Z,96511.34
2023-03-31T19:36:48.313Z,96518.56
2023-03-31T19:41:52.364Z,96519.56
2023-03-31T19:46:58.738Z,96503.63
2023-03-31T19:52:02.830Z,96499.44
2023-03-31T19:57:09.126Z,96497.72
2023-03-31T20:02:15.137Z,96500.53
2023-03-31T20:07:19.676Z,96491.53
2023-03-31T20:12:23.799Z,96481.75
2023-03-31T20:17:29.283Z,96479.16
2023-03-31T20:22:33.989Z,96480.00
2023-03-31T20:27:38.299Z,96479.84
2023-03-31T20:32:44.004Z,96481.84
2023-03-31T20:37:48.497Z,96479.88
2023-03-31T20:42:54.120Z,96472.28
2023-03-31T20:47:59.504Z,96482.53
2023-03-31T20:53:03.549Z,96483.91
2023-03-31T20:58:07.658Z,96478.13
2023-03-31T21:03:13.401Z,96486.72
2023-03-31T21:08:17.394Z,96477.34
2023-03-31T21:13:21.681Z,96488.75
2023-03-31T21:18:27.937Z,96488.53
2023-03-31T21:23:32.330Z,96489.31
2023-03-31T21:28:37.778Z,96498.91
2023-03-31T21:33:44.862Z,96493.53
2023-03-31T21:38:49.309Z,96500.72
2023-03-31T21:43:54.511Z,96493.53
2023-03-31T21:49:02.046Z,96497.09
2023-03-31T21:54:06.935Z,96494.31
2023-03-31T21:59:11.142Z,96494.72
2023-03-31T22:04:17.247Z,96502.31
2023-03-31T22:09:21.728Z,96505.09
2023-03-31T22:14:26.102Z,96513.09
2023-03-31T22:19:31.701Z,96497.31
2023-03-31T22:24:36.046Z,96507.28
2023-03-31T22:29:40.620Z,96501.13
2023-03-31T22:34:46.518Z,96508.31
2023-03-31T22:39:50.637Z,96525.09
2023-03-31T22:44:54.669Z,96521.47
2023-03-31T22:49:59.928Z,96525.06
2023-03-31T22:55:04.153Z,96525.84
2023-03-31T23:00:11.227Z,96525.84
2023-03-31T23:05:16.921Z,96522.25
2023-03-31T23:10:21.244Z,96523.22
2023-03-31T23:15:25.107Z,96527.44
2023-03-31T23:20:31.031Z,96521.44
2023-03-31T23:25:35.670Z,96514.25
2023-03-31T23:30:40.144Z,96510.03
2023-03-31T23:35:45.792Z,96502.63
2023-03-31T23:40:49.666Z,96494.63
2023-03-31T23:45:53.722Z,96498.03
2023-03-31T23:50:58.995Z,96494.44
2023-03-31T23:56:05.085Z,96489.63
